Time;durP1;ratioP1;P1;durP2;ratioP2;P2;SDS_P1;SDS_P2;PMS_P1;PMS_P2;Temp;Humidity;BMP_temperature;BMP_pressure;BME280_temperature;BME280_humidity;BME280_pressure;Samples;Min_cycle;Max_cycle;Signal;HPM_P1;HPM_P2
2023/06/30 00:00:12;;;;;;;5.45;2.00;;;11.30;99.90;;;;;;5054553;28;20036;-93
2023/06/30 00:02:42;;;;;;;7.03;1.80;;;11.30;99.90;;;;;;5037151;28;20033;-91
2023/06/30 00:05:08;;;;;;;4.17;1.90;;;11.20;99.90;;;;;;5053595;28;20017;-93
2023/06/30 00:07:33;;;;;;;5.13;1.80;;;11.20;99.90;;;;;;5054366;28;20033;-91
2023/06/30 00:09:59;;;;;;;7.15;1.90;;;11.20;99.90;;;;;;5053673;28;20040;-91
2023/06/30 00:12:25;;;;;;;4.05;1.77;;;11.20;99.90;;;;;;5036290;28;20020;-92
2023/06/30 00:14:50;;;;;;;4.75;2.20;;;11.10;99.90;;;;;;5032958;28;20507;-91
2023/06/30 00:17:16;;;;;;;6.63;1.80;;;11.00;99.90;;;;;;5036684;28;20029;-92
2023/06/30 00:19:42;;;;;;;4.07;1.60;;;11.00;99.90;;;;;;5036518;28;20271;-91
2023/06/30 00:22:08;;;;;;;7.60;2.17;;;10.90;99.90;;;;;;5054658;28;20610;-92
2023/06/30 00:24:34;;;;;;;7.13;1.75;;;10.80;99.90;;;;;;5037857;28;20021;-91
2023/06/30 00:27:00;;;;;;;15.93;1.80;;;10.80;99.90;;;;;;5037632;28;20021;-91
2023/06/30 00:29:26;;;;;;;3.80;1.70;;;10.70;99.90;;;;;;5033503;28;20039;-92
2023/06/30 00:31:52;;;;;;;5.93;2.40;;;10.70;99.90;;;;;;5040837;28;20036;-92
2023/06/30 00:34:17;;;;;;;7.38;2.25;;;10.70;99.90;;;;;;5037979;28;20492;-90
2023/06/30 00:36:43;;;;;;;6.05;1.70;;;10.70;99.90;;;;;;5040719;28;20037;-92
2023/06/30 00:39:09;;;;;;;3.75;2.22;;;10.70;99.90;;;;;;5045120;28;20029;-91
2023/06/30 00:41:34;;;;;;;6.07;2.30;;;10.60;99.90;;;;;;5036296;28;20116;-89
2023/06/30 00:44:01;;;;;;;5.65;2.00;;;10.60;99.90;;;;;;5065107;28;20076;-88
2023/06/30 00:46:28;;;;;;;6.43;1.83;;;10.60;99.90;;;;;;5060280;28;20036;-91
2023/06/30 00:48:53;;;;;;;5.38;1.90;;;10.60;99.90;;;;;;5060609;28;20059;-91
2023/06/30 00:51:19;;;;;;;6.07;2.17;;;10.60;99.90;;;;;;5039891;28;20555;-91
2023/06/30 00:53:45;;;;;;;4.13;1.92;;;10.60;99.90;;;;;;5037579;28;20028;-93
2023/06/30 00:56:11;;;;;;;8.05;2.33;;;10.60;99.90;;;;;;5040723;28;20029;-88
2023/06/30 00:58:37;;;;;;;6.85;1.90;;;10.60;99.90;;;;;;5039455;28;20059;-90
2023/06/30 01:01:23;;;;;;;5.88;1.63;;;10.50;99.90;;;;;;5053368;28;20045;-90
2023/06/30 01:04:01;;;;;;;3.50;1.63;;;10.50;99.90;;;;;;5031082;28;20032;-93
2023/06/30 01:06:45;;;;;;;5.85;2.00;;;10.50;99.90;;;;;;5031044;28;20033;-92
2023/06/30 01:09:15;;;;;;;6.43;1.90;;;10.50;99.90;;;;;;5053717;28;20029;-89
2023/06/30 01:11:42;;;;;;;7.70;1.90;;;10.50;99.90;;;;;;5043231;28;20047;-91
2023/06/30 01:14:10;;;;;;;9.35;2.00;;;10.50;99.90;;;;;;5067475;28;20017;-92
2023/06/30 01:16:37;;;;;;;3.40;2.05;;;10.50;99.90;;;;;;5062330;28;20395;-93
2023/06/30 01:19:08;;;;;;;8.52;1.80;;;10.50;99.90;;;;;;5039280;28;20430;-92
2023/06/30 01:21:33;;;;;;;;;;;10.40;99.90;;;;;;5063137;28;20116;-91
2023/06/30 01:24:03;;;;;;;5.10;2.00;;;10.30;99.90;;;;;;5065736;28;19948;-92
2023/06/30 01:26:34;;;;;;;9.05;2.10;;;10.30;99.90;;;;;;5036253;28;20025;-92
2023/06/30 01:29:03;;;;;;;6.13;2.10;;;10.20;99.90;;;;;;5039487;28;20021;-93
2023/06/30 01:31:31;;;;;;;5.93;2.15;;;10.20;99.90;;;;;;5043642;28;20128;-92
2023/06/30 01:33:59;;;;;;;8.02;2.00;;;10.20;99.90;;;;;;5041495;28;20024;-93
2023/06/30 01:36:24;;;;;;;7.43;2.20;;;10.20;99.90;;;;;;5051747;28;20021;-92
2023/06/30 01:38:50;;;;;;;7.88;1.90;;;10.20;99.90;;;;;;5039728;28;20033;-94
2023/06/30 01:41:16;;;;;;;5.03;2.30;;;10.20;99.90;;;;;;5039891;28;20132;-93
2023/06/30 01:43:42;;;;;;;5.60;1.90;;;10.20;99.90;;;;;;5035802;28;20029;-93
2023/06/30 01:46:08;;;;;;;7.18;2.42;;;10.20;99.90;;;;;;5035753;28;20483;-93
2023/06/30 01:48:35;;;;;;;6.65;1.83;;;10.10;99.90;;;;;;5035833;28;20029;-92
2023/06/30 01:51:01;;;;;;;6.13;1.88;;;10.10;99.90;;;;;;5035374;28;20492;-91
2023/06/30 01:53:26;;;;;;;9.27;2.05;;;10.10;99.90;;;;;;5035089;28;20029;-91
2023/06/30 01:55:56;;;;;;;4.30;2.28;;;10.10;99.90;;;;;;5052948;28;20181;-91
2023/06/30 01:58:21;;;;;;;7.97;1.90;;;10.10;99.90;;;;;;5035158;28;20052;-91
2023/06/30 02:00:48;;;;;;;7.80;2.17;;;10.00;99.90;;;;;;5052571;28;20492;-92
2023/06/30 02:03:14;;;;;;;10.60;2.25;;;10.00;99.90;;;;;;5036057;28;20128;-91
2023/06/30 02:05:40;;;;;;;5.75;2.33;;;9.90;99.90;;;;;;5053020;28;20060;-91
2023/06/30 02:08:05;;;;;;;7.00;1.85;;;9.80;99.90;;;;;;5053303;28;20051;-92
2023/06/30 02:10:31;;;;;;;6.22;2.00;;;9.80;99.90;;;;;;5036062;28;20033;-94
2023/06/30 02:12:57;;;;;;;4.80;2.08;;;9.70;99.90;;;;;;5053348;28;20029;-93
2023/06/30 02:15:23;;;;;;;7.00;2.92;;;9.70;99.90;;;;;;5034998;28;20029;-92
2023/06/30 02:17:49;;;;;;;3.90;1.70;;;9.70;99.90;;;;;;5035073;28;20021;-92
2023/06/30 02:20:14;;;;;;;6.68;1.98;;;9.70;99.90;;;;;;5034734;28;20061;-94
2023/06/30 02:22:40;;;;;;;4.85;2.15;;;9.70;99.90;;;;;;5034761;28;20025;-92
2023/06/30 02:25:06;;;;;;;4.20;1.90;;;9.70;99.90;;;;;;5034592;28;20651;-92
2023/06/30 02:27:32;;;;;;;7.35;2.13;;;9.70;99.90;;;;;;5035524;28;20643;-92
2023/06/30 02:30:03;;;;;;;5.40;1.90;;;9.60;99.90;;;;;;5038709;28;20119;-93
2023/06/30 02:32:29;;;;;;;6.22;2.55;;;9.60;99.90;;;;;;5056953;28;20029;-92
2023/06/30 02:34:55;;;;;;;8.25;2.47;;;9.60;99.90;;;;;;5057198;28;20024;-92
2023/06/30 02:37:20;;;;;;;3.72;1.95;;;9.60;99.90;;;;;;5057566;28;20083;-92
2023/06/30 02:39:46;;;;;;;8.45;3.13;;;9.50;99.90;;;;;;5043020;28;20029;-93
2023/06/30 02:42:12;;;;;;;7.50;2.40;;;9.40;99.90;;;;;;5038871;28;20436;-90
2023/06/30 02:44:37;;;;;;;5.32;2.25;;;9.40;99.90;;;;;;5055809;28;20029;-93
2023/06/30 02:47:03;;;;;;;7.38;2.03;;;9.40;99.90;;;;;;5038922;28;20119;-92
2023/06/30 02:49:29;;;;;;;5.18;1.98;;;9.40;99.90;;;;;;5038173;28;20033;-91
2023/06/30 02:51:55;;;;;;;5.78;2.13;;;9.40;99.90;;;;;;5038040;28;20025;-91
2023/06/30 02:54:21;;;;;;;4.72;2.13;;;9.40;99.90;;;;;;5038379;28;20021;-91
2023/06/30 02:56:46;;;;;;;8.27;2.28;;;9.40;99.90;;;;;;5038078;28;20491;-93
2023/06/30 02:59:12;;;;;;;7.93;2.83;;;9.40;99.90;;;;;;5055401;28;20369;-92
2023/06/30 03:01:40;;;;;;;9.65;2.70;;;9.40;99.90;;;;;;5037962;28;20318;-92
2023/06/30 03:04:06;;;;;;;5.50;2.60;;;9.30;99.90;;;;;;5038086;28;20102;-93
2023/06/30 03:06:32;;;;;;;3.40;2.20;;;9.30;99.90;;;;;;5038211;28;20434;-92
2023/06/30 03:08:58;;;;;;;5.90;2.20;;;9.30;99.90;;;;;;5056047;28;20016;-93
2023/06/30 03:11:24;;;;;;;8.07;2.28;;;9.20;99.90;;;;;;5038293;28;20029;-92
2023/06/30 03:13:52;;;;;;;7.72;2.30;;;9.30;99.90;;;;;;5037494;28;20537;-94
2023/06/30 03:16:17;;;;;;;6.82;2.90;;;9.20;99.90;;;;;;5038732;28;20033;-92
2023/06/30 03:18:44;;;;;;;3.13;2.30;;;9.20;99.90;;;;;;5064188;28;20040;-93
2023/06/30 03:21:09;;;;;;;2.90;2.00;;;9.20;99.90;;;;;;5040826;28;20029;-93
2023/06/30 03:23:35;;;;;;;9.85;2.83;;;9.20;99.90;;;;;;5056479;28;20545;-92
2023/06/30 03:26:01;;;;;;;5.30;2.15;;;9.20;99.90;;;;;;5039129;28;20024;-91
2023/06/30 03:28:27;;;;;;;4.13;2.08;;;9.20;99.90;;;;;;5039265;28;20025;-94
2023/06/30 03:30:53;;;;;;;7.18;2.42;;;9.30;99.90;;;;;;5046920;28;20040;-91
2023/06/30 03:33:18;;;;;;;6.80;2.30;;;9.20;99.90;;;;;;5054061;28;20025;-91
2023/06/30 03:35:46;;;;;;;4.72;2.00;;;9.30;99.90;;;;;;5053287;28;20460;-92
2023/06/30 03:38:12;;;;;;;9.30;2.40;;;9.30;99.90;;;;;;5041227;28;20031;-92
2023/06/30 03:40:37;;;;;;;5.85;2.15;;;9.30;99.90;;;;;;5054908;28;20013;-90
2023/06/30 03:43:03;;;;;;;4.13;2.20;;;9.30;99.90;;;;;;5061291;28;20017;-89
2023/06/30 03:45:28;;;;;;;7.20;2.50;;;9.20;99.90;;;;;;5079334;28;20021;-88
2023/06/30 03:47:54;;;;;;;6.60;2.60;;;9.20;99.90;;;;;;5061319;28;20060;-86
2023/06/30 03:50:20;;;;;;;6.35;2.38;;;9.10;99.90;;;;;;5059949;28;20029;-91
2023/06/30 03:52:45;;;;;;;5.72;2.67;;;9.10;99.90;;;;;;5059228;28;20033;-92
2023/06/30 03:55:11;;;;;;;7.53;2.53;;;9.10;99.90;;;;;;5075137;28;20036;-90
2023/06/30 03:57:37;;;;;;;5.35;2.42;;;9.10;99.90;;;;;;5057730;28;20033;-88
2023/06/30 04:00:03;;;;;;;5.78;2.63;;;9.10;99.90;;;;;;5057979;28;20029;-90
2023/06/30 04:02:29;;;;;;;6.25;2.22;;;9.20;99.90;;;;;;5074867;28;20041;-93
2023/06/30 04:04:54;;;;;;;5.80;2.58;;;9.20;99.90;;;;;;5054621;28;20031;-90
2023/06/30 04:07:20;;;;;;;5.47;2.30;;;9.20;99.90;;;;;;5066986;28;20553;-89
2023/06/30 04:09:46;;;;;;;5.53;2.28;;;9.20;99.90;;;;;;5069059;28;20124;-90
2023/06/30 04:12:11;;;;;;;10.07;2.55;;;9.30;99.90;;;;;;5048935;28;20025;-90
2023/06/30 04:14:37;;;;;;;5.80;2.20;;;9.30;99.90;;;;;;5047372;28;20029;-91
2023/06/30 04:17:03;;;;;;;7.40;2.40;;;9.30;99.90;;;;;;5062192;28;20021;-92
2023/06/30 04:19:29;;;;;;;6.80;2.25;;;9.30;99.90;;;;;;5045496;28;20388;-89
2023/06/30 04:21:54;;;;;;;9.07;2.42;;;9.40;99.90;;;;;;5024422;28;20033;-90
2023/06/30 04:24:20;;;;;;;7.55;2.60;;;9.50;99.90;;;;;;5039537;28;20116;-93
2023/06/30 04:26:46;;;;;;;4.82;1.98;;;9.50;99.90;;;;;;5022456;28;20049;-92
2023/06/30 04:29:12;;;;;;;5.60;2.95;;;9.50;99.90;;;;;;5038763;28;20032;-91
2023/06/30 04:31:37;;;;;;;6.88;2.35;;;9.60;99.90;;;;;;5038351;28;20029;-92
2023/06/30 04:34:03;;;;;;;14.07;2.92;;;9.60;99.90;;;;;;5038555;28;20492;-92
2023/06/30 04:36:29;;;;;;;5.68;2.50;;;9.60;99.90;;;;;;5055702;28;20479;-89
2023/06/30 04:38:55;;;;;;;4.72;2.28;;;9.70;99.90;;;;;;5038151;28;20048;-90
2023/06/30 04:41:22;;;;;;;7.15;3.20;;;9.70;99.90;;;;;;5038063;28;20476;-91
2023/06/30 04:43:48;;;;;;;6.22;2.50;;;9.70;99.90;;;;;;5037740;28;20119;-92
2023/06/30 04:46:13;;;;;;;7.93;2.53;;;9.70;99.90;;;;;;5056880;28;20487;-90
2023/06/30 04:48:39;;;;;;;8.45;3.53;;;9.80;99.90;;;;;;5067323;28;20048;-89
2023/06/30 04:51:06;;;;;;;6.50;2.40;;;9.80;99.90;;;;;;5049408;28;20082;-91
2023/06/30 04:53:32;;;;;;;7.82;2.58;;;9.90;99.90;;;;;;5048961;28;20050;-91
2023/06/30 04:55:57;;;;;;;7.70;2.45;;;9.90;99.90;;;;;;5049685;28;20556;-92
2023/06/30 04:58:23;;;;;;;6.32;2.45;;;10.00;99.90;;;;;;5044926;28;20064;-91
2023/06/30 05:00:49;;;;;;;6.80;2.67;;;10.00;99.90;;;;;;5042694;28;20072;-91
2023/06/30 05:03:15;;;;;;;5.55;2.67;;;10.00;99.90;;;;;;5038956;28;20087;-90
2023/06/30 05:05:41;;;;;;;7.57;2.42;;;10.00;99.90;;;;;;5038303;28;20140;-92
2023/06/30 05:08:06;;;;;;;5.00;2.17;;;10.00;99.90;;;;;;5037162;28;20116;-92
2023/06/30 05:10:32;;;;;;;3.50;2.15;;;10.00;99.90;;;;;;5037338;28;20131;-91
2023/06/30 05:12:58;;;;;;;9.05;2.92;;;10.10;99.90;;;;;;5062758;28;20043;-91
2023/06/30 05:15:23;;;;;;;6.35;2.47;;;10.10;99.90;;;;;;5067604;28;20094;-92
2023/06/30 05:17:49;;;;;;;6.70;2.20;;;10.20;99.90;;;;;;5064850;28;20048;-90
2023/06/30 05:20:15;;;;;;;5.15;2.47;;;10.30;99.90;;;;;;5042025;28;20025;-91
2023/06/30 05:22:40;;;;;;;6.03;2.17;;;10.40;99.90;;;;;;5037799;28;20021;-91
2023/06/30 05:25:07;;;;;;;5.43;1.90;;;10.40;99.90;;;;;;5036946;28;20496;-92
2023/06/30 05:27:32;;;;;;;5.07;2.40;;;10.50;99.90;;;;;;5036277;28;20025;-92
2023/06/30 05:29:58;;;;;;;8.45;2.58;;;10.50;99.90;;;;;;5037568;28;20189;-92
2023/06/30 05:32:23;;;;;;;4.20;2.75;;;10.50;99.90;;;;;;5044429;28;20025;-88
2023/06/30 05:34:50;;;;;;;3.92;2.50;;;10.60;99.90;;;;;;5037769;28;20048;-91
2023/06/30 05:37:16;;;;;;;7.13;2.33;;;10.60;99.90;;;;;;5036934;28;20021;-91
2023/06/30 05:39:41;;;;;;;4.05;2.03;;;10.60;99.90;;;;;;5037008;28;20480;-92
2023/06/30 05:42:07;;;;;;;6.20;2.45;;;10.70;99.90;;;;;;5054618;28;20029;-93
2023/06/30 05:44:33;;;;;;;6.35;2.65;;;10.70;99.90;;;;;;5037989;28;20021;-92
2023/06/30 05:46:59;;;;;;;6.38;2.30;;;10.80;99.90;;;;;;5036637;28;20479;-91
2023/06/30 05:49:25;;;;;;;4.25;1.92;;;10.80;99.90;;;;;;5037584;28;20021;-91
2023/06/30 05:51:51;;;;;;;5.30;2.10;;;10.80;99.90;;;;;;5035874;28;20550;-91
2023/06/30 05:54:17;;;;;;;7.45;2.15;;;10.90;99.90;;;;;;5053378;28;20052;-92
2023/06/30 05:56:42;;;;;;;6.63;2.70;;;11.00;99.90;;;;;;5036095;28;20029;-92
2023/06/30 05:59:10;;;;;;;6.07;2.60;;;11.10;99.90;;;;;;5035438;28;20049;-92
2023/06/30 06:01:39;;;;;;;6.88;2.50;;;11.10;99.90;;;;;;5036710;28;20045;-92
2023/06/30 06:04:08;;;;;;;8.23;3.13;;;11.20;99.90;;;;;;5040314;28;20071;-94
2023/06/30 06:06:34;;;;;;;5.45;2.13;;;11.30;99.90;;;;;;5039088;28;20032;-93
2023/06/30 06:09:00;;;;;;;8.18;2.38;;;11.50;99.90;;;;;;5056315;28;20028;-92
2023/06/30 06:11:25;;;;;;;7.75;2.30;;;11.50;99.90;;;;;;5038378;28;20048;-93
2023/06/30 06:13:51;;;;;;;6.95;3.72;;;11.50;99.90;;;;;;5038643;28;20028;-90
2023/06/30 06:16:17;;;;;;;12.10;2.70;;;11.50;99.90;;;;;;5056593;28;20078;-91
2023/06/30 06:18:42;;;;;;;7.75;2.45;;;11.60;99.90;;;;;;5060750;28;20476;-90
2023/06/30 06:21:08;;;;;;;8.00;2.40;;;11.70;99.90;;;;;;5037154;28;20025;-90
2023/06/30 06:23:34;;;;;;;7.18;2.25;;;11.80;99.90;;;;;;5032992;28;20693;-92
2023/06/30 06:26:02;;;;;;;9.38;2.40;;;11.90;99.90;;;;;;5036386;28;20021;-94
2023/06/30 06:28:27;;;;;;;8.13;2.72;;;12.00;99.90;;;;;;5054845;28;20024;-95
2023/06/30 06:30:53;;;;;;;9.48;2.55;;;12.10;99.90;;;;;;5036008;28;20468;-93
2023/06/30 06:33:19;;;;;;;9.85;2.50;;;12.10;99.90;;;;;;5038555;28;20078;-90
2023/06/30 06:35:44;;;;;;;9.55;2.40;;;12.20;99.90;;;;;;5038716;28;20067;-88
2023/06/30 06:38:10;;;;;;;13.10;2.55;;;12.30;99.90;;;;;;5037856;28;20040;-93
2023/06/30 06:40:36;;;;;;;9.60;2.38;;;12.40;99.90;;;;;;5054984;28;20040;-93
2023/06/30 06:43:01;;;;;;;8.20;2.25;;;12.40;99.90;;;;;;5038327;28;20017;-94
2023/06/30 06:45:28;;;;;;;7.93;2.75;;;12.50;99.90;;;;;;5037804;28;20052;-94
2023/06/30 06:48:19;;;;;;;11.85;3.28;;;12.60;99.90;;;;;;5038208;28;20013;-94
2023/06/30 06:50:46;;;;;;;13.48;2.58;;;12.70;99.90;;;;;;5036041;28;20029;-94
2023/06/30 06:53:19;;;;;;;11.13;2.20;;;12.80;99.90;;;;;;5037984;28;20074;-93
2023/06/30 06:55:46;;;;;;;11.25;2.20;;;12.80;99.90;;;;;;5054936;28;20013;-95
2023/06/30 06:58:12;;;;;;;10.90;2.30;;;12.90;99.90;;;;;;5033982;28;20056;-93
2023/06/30 07:00:37;;;;;;;14.07;2.55;;;13.00;99.90;;;;;;5041771;28;20144;-93
2023/06/30 07:03:03;;;;;;;12.18;2.22;;;13.00;99.90;;;;;;5055743;28;20061;-94
2023/06/30 07:05:31;;;;;;;5.05;1.52;;;13.10;99.90;;;;;;5038447;28;20039;-92
2023/06/30 07:07:57;;;;;;;15.88;3.00;;;13.10;99.90;;;;;;5038923;28;20120;-93
2023/06/30 07:10:23;;;;;;;5.97;2.17;;;13.20;99.90;;;;;;5045357;28;20040;-93
2023/06/30 07:12:49;;;;;;;7.50;1.98;;;13.20;99.90;;;;;;5041686;28;20066;-93
2023/06/30 07:15:15;;;;;;;10.80;2.58;;;13.30;99.90;;;;;;5056684;28;20063;-94
2023/06/30 07:17:41;;;;;;;9.07;2.40;;;13.30;99.90;;;;;;5055638;28;20082;-94
2023/06/30 07:20:07;;;;;;;9.30;2.33;;;13.40;99.90;;;;;;5037855;28;20025;-95
2023/06/30 07:22:35;;;;;;;8.00;2.58;;;13.40;99.90;;;;;;5056163;28;20021;-92
2023/06/30 07:25:02;;;;;;;10.52;2.78;;;13.40;99.90;;;;;;5055774;28;20017;-95
2023/06/30 07:27:29;;;;;;;13.45;3.47;;;13.50;99.90;;;;;;5037805;28;20123;-96
2023/06/30 07:29:54;;;;;;;8.38;2.50;;;13.50;99.90;;;;;;5037101;28;20056;-92
2023/06/30 07:32:20;;;;;;;6.60;2.22;;;13.50;99.90;;;;;;5038415;28;20029;-96
2023/06/30 07:34:46;;;;;;;10.18;2.47;;;13.50;99.90;;;;;;5055397;28;20483;-91
2023/06/30 07:37:11;;;;;;;7.88;2.50;;;13.60;99.90;;;;;;5038619;28;20028;-95
2023/06/30 07:39:37;;;;;;;12.93;2.35;;;13.60;99.90;;;;;;5040218;28;20093;-96
2023/06/30 07:42:03;;;;;;;13.23;3.22;;;13.70;99.90;;;;;;5057012;28;20060;-93
2023/06/30 07:44:29;;;;;;;11.50;3.03;;;13.60;99.90;;;;;;5057814;28;20040;-94
2023/06/30 07:46:54;;;;;;;7.78;2.13;;;13.70;99.90;;;;;;5049522;28;20488;-95
2023/06/30 07:49:21;;;;;;;15.80;2.65;;;13.70;99.90;;;;;;5070540;28;20025;-96
2023/06/30 07:51:47;;;;;;;11.38;2.45;;;13.70;99.90;;;;;;5071170;28;20013;-84
2023/06/30 07:54:16;;;;;;;19.95;2.83;;;13.70;99.90;;;;;;5052779;28;20024;-85
2023/06/30 07:56:42;;;;;;;7.53;2.40;;;13.70;99.90;;;;;;5056775;28;20017;-89
2023/06/30 07:59:07;;;;;;;14.50;2.65;;;13.70;99.90;;;;;;5077412;28;20043;-92
2023/06/30 08:01:33;;;;;;;14.38;2.50;;;13.70;99.90;;;;;;5072198;28;20050;-95
2023/06/30 08:03:59;;;;;;;14.35;2.60;;;13.80;99.90;;;;;;5047872;28;20392;-92
2023/06/30 08:06:25;;;;;;;10.27;3.10;;;13.80;99.90;;;;;;5065366;28;20036;-93
2023/06/30 08:08:51;;;;;;;14.98;2.85;;;13.90;99.90;;;;;;5040807;28;20047;-95
2023/06/30 08:11:17;;;;;;;10.80;2.80;;;13.90;99.90;;;;;;5067656;28;20092;-95
2023/06/30 08:13:46;;;;;;;9.77;2.90;;;13.90;99.90;;;;;;5055995;28;20048;-96
2023/06/30 08:16:12;;;;;;;16.17;2.53;;;14.00;99.90;;;;;;5034536;28;20116;-95
2023/06/30 08:18:38;;;;;;;14.95;2.92;;;14.00;99.90;;;;;;5040735;28;20021;-95
2023/06/30 08:21:05;;;;;;;13.43;3.80;;;14.10;99.90;;;;;;5038296;28;20024;-94
2023/06/30 08:23:31;;;;;;;13.13;2.75;;;14.10;99.90;;;;;;5037629;28;20043;-92
2023/06/30 08:25:56;;;;;;;12.48;3.47;;;14.10;99.90;;;;;;5037947;28;20017;-93
2023/06/30 08:28:22;;;;;;;13.13;2.90;;;14.10;99.90;;;;;;5038271;28;20052;-93
2023/06/30 08:30:49;;;;;;;10.75;2.63;;;14.20;99.90;;;;;;5038099;28;20029;-94
2023/06/30 08:33:14;;;;;;;11.95;2.47;;;14.20;99.90;;;;;;5035334;28;20025;-94
2023/06/30 08:35:40;;;;;;;14.95;3.15;;;14.20;99.90;;;;;;5036690;28;20025;-94
2023/06/30 08:38:06;;;;;;;17.17;2.72;;;14.30;99.90;;;;;;5056237;28;20019;-94
2023/06/30 08:40:31;;;;;;;10.18;3.10;;;14.30;99.90;;;;;;5058464;28;20079;-92
2023/06/30 08:43:06;;;;;;;12.57;3.20;;;14.40;99.90;;;;;;5044282;28;20016;-93
2023/06/30 08:45:32;;;;;;;11.45;3.10;;;14.50;99.90;;;;;;5046717;28;20062;-90
2023/06/30 08:48:04;;;;;;;13.50;2.72;;;14.60;99.90;;;;;;5056954;28;20009;-88
2023/06/30 08:50:34;;;;;;;10.90;3.10;;;14.60;99.90;;;;;;5076164;28;20045;-89
2023/06/30 08:53:02;;;;;;;15.82;2.75;;;14.70;99.90;;;;;;5056741;28;20029;-94
2023/06/30 08:55:28;;;;;;;14.13;3.58;;;14.70;99.90;;;;;;5075024;28;20032;-90
2023/06/30 08:57:56;;;;;;;12.57;2.60;;;14.70;99.90;;;;;;5054879;28;20025;-89
2023/06/30 09:00:22;;;;;;;10.10;3.08;;;14.70;99.90;;;;;;5070437;28;20052;-94
2023/06/30 09:02:48;;;;;;;8.35;2.60;;;14.70;99.90;;;;;;5054815;28;20016;-94
2023/06/30 09:05:15;;;;;;;11.73;3.20;;;14.80;99.90;;;;;;5070195;28;20047;-93
2023/06/30 09:08:03;;;;;;;13.88;2.85;;;14.90;99.90;;;;;;5071981;28;20046;-92
2023/06/30 09:10:37;;;;;;;7.93;2.53;;;14.90;99.90;;;;;;5023106;28;20030;-92
2023/06/30 09:13:04;;;;;;;9.38;2.85;;;15.00;99.90;;;;;;5021793;28;20018;-92
2023/06/30 09:15:31;;;;;;;5.85;2.35;;;15.00;99.90;;;;;;5022731;28;20037;-93
2023/06/30 09:17:57;;;;;;;6.55;2.40;;;15.00;99.90;;;;;;5017797;28;20026;-92
2023/06/30 09:20:23;;;;;;;5.03;2.50;;;15.00;99.90;;;;;;5023071;28;20099;-92
2023/06/30 09:22:50;;;;;;;7.45;2.20;;;15.00;99.90;;;;;;5023315;28;20025;-92
2023/06/30 09:25:27;;;;;;;7.18;2.45;;;15.10;99.90;;;;;;5016091;28;20025;-93
2023/06/30 09:27:55;;;;;;;5.55;2.30;;;15.00;99.90;;;;;;5016744;28;20041;-92
2023/06/30 09:30:32;;;;;;;4.28;1.95;;;15.00;99.90;;;;;;5019730;28;20045;-93
2023/06/30 09:32:57;;;;;;;5.70;2.38;;;15.00;99.90;;;;;;5030308;28;20041;-93
2023/06/30 09:35:23;;;;;;;6.80;2.10;;;15.00;99.90;;;;;;5030143;28;20021;-92
2023/06/30 09:37:49;;;;;;;6.95;2.40;;;15.00;99.90;;;;;;5040472;28;20025;-94
2023/06/30 09:40:15;;;;;;;4.72;3.05;;;15.00;99.90;;;;;;5022012;28;20025;-92
2023/06/30 09:42:44;;;;;;;6.55;2.53;;;15.00;99.90;;;;;;5020004;28;20121;-92
2023/06/30 09:45:13;;;;;;;4.65;2.13;;;15.00;99.90;;;;;;5021786;28;20033;-91
2023/06/30 09:47:39;;;;;;;4.35;2.20;;;15.00;99.90;;;;;;5039323;28;20017;-91
2023/06/30 09:50:05;;;;;;;5.82;2.15;;;14.90;99.90;;;;;;5021511;28;20033;-91
2023/06/30 09:52:33;;;;;;;4.50;2.13;;;14.90;99.90;;;;;;5021295;28;20026;-90
2023/06/30 09:55:08;;;;;;;8.02;2.65;;;14.90;99.90;;;;;;5019443;28;20061;-93
2023/06/30 09:57:37;;;;;;;7.20;2.95;;;14.90;99.90;;;;;;5022757;28;20017;-94
2023/06/30 10:00:04;;;;;;;6.55;2.55;;;14.90;99.90;;;;;;5020319;28;20029;-94
2023/06/30 10:02:31;;;;;;;5.70;2.40;;;14.80;99.90;;;;;;5024132;28;20060;-95
2023/06/30 10:04:56;;;;;;;4.78;2.40;;;14.80;99.90;;;;;;5022129;28;20129;-92
2023/06/30 10:07:23;;;;;;;6.90;2.88;;;14.90;99.90;;;;;;5022245;28;20060;-92
2023/06/30 10:09:50;;;;;;;6.65;2.20;;;14.90;99.90;;;;;;5023460;28;20044;-91
2023/06/30 10:12:18;;;;;;;4.43;2.97;;;14.90;99.90;;;;;;5021847;28;20029;-91
2023/06/30 10:14:45;;;;;;;4.32;2.65;;;14.90;99.90;;;;;;5021652;28;20078;-92
2023/06/30 10:17:12;;;;;;;6.60;2.65;;;14.90;99.90;;;;;;5040370;28;20038;-93
2023/06/30 10:19:39;;;;;;;6.57;2.40;;;15.00;99.90;;;;;;5019572;28;20013;-92
2023/06/30 10:22:05;;;;;;;5.97;3.13;;;15.00;99.90;;;;;;5039583;28;20025;-93
2023/06/30 10:24:37;;;;;;;7.10;2.28;;;15.10;99.90;;;;;;5027265;28;20037;-92
2023/06/30 10:27:09;;;;;;;3.38;2.22;;;15.30;99.90;;;;;;5031043;28;20025;-93
2023/06/30 10:29:35;;;;;;;4.05;2.22;;;15.40;99.90;;;;;;5045424;28;20022;-92
2023/06/30 10:32:01;;;;;;;2.50;2.05;;;15.50;99.90;;;;;;5029709;28;20034;-89
2023/06/30 10:34:29;;;;;;;3.45;2.40;;;15.60;99.90;;;;;;5004901;28;20222;-92
2023/06/30 10:36:55;;;;;;;6.50;2.65;;;15.60;99.90;;;;;;5004571;28;20049;-91
2023/06/30 10:39:21;;;;;;;6.80;2.42;;;15.50;99.90;;;;;;5002780;28;20018;-89
2023/06/30 10:41:48;;;;;;;8.32;2.92;;;15.40;99.90;;;;;;5012436;28;20106;-92
2023/06/30 10:44:14;;;;;;;8.00;2.70;;;15.40;99.90;;;;;;5023592;28;20065;-91
2023/06/30 10:46:53;;;;;;;4.35;2.70;;;15.50;99.90;;;;;;5020970;28;20021;-92
2023/06/30 10:49:22;;;;;;;4.38;2.67;;;15.60;99.90;;;;;;4996946;28;20057;-94
2023/06/30 10:51:49;;;;;;;6.22;2.50;;;15.60;99.90;;;;;;4998920;28;20044;-93
2023/06/30 10:54:42;;;;;;;4.60;2.42;;;15.70;99.90;;;;;;5000679;28;20049;-92
2023/06/30 10:57:24;;;;;;;9.57;3.00;;;15.70;99.90;;;;;;5032467;28;20052;-94
2023/06/30 11:00:14;;;;;;;5.95;2.30;;;15.70;99.90;;;;;;5036301;28;20036;-95
2023/06/30 11:02:48;;;;;;;5.47;2.53;;;15.80;99.90;;;;;;5024477;28;20484;-93
2023/06/30 11:05:30;;;;;;;9.38;2.80;;;15.80;99.90;;;;;;5017166;28;20113;-93
2023/06/30 11:08:09;;;;;;;5.60;2.67;;;15.80;99.90;;;;;;5037574;28;20109;-92
2023/06/30 11:10:46;;;;;;;7.18;2.05;;;15.80;99.90;;;;;;5037462;28;20064;-95
2023/06/30 11:13:11;;;;;;;4.18;2.10;;;15.80;99.90;;;;;;5033668;28;20029;-92
2023/06/30 11:15:43;;;;;;;8.13;1.92;;;15.70;99.90;;;;;;5025521;28;20021;-92
2023/06/30 11:18:12;;;;;;;3.28;1.90;;;15.70;99.90;;;;;;5037047;28;20064;-92
2023/06/30 11:20:38;;;;;;;4.32;1.75;;;15.70;99.90;;;;;;5036876;28;20096;-91
2023/06/30 11:23:16;;;;;;;3.15;1.90;;;15.60;99.90;;;;;;5016751;28;20025;-92
2023/06/30 11:25:42;;;;;;;4.82;1.75;;;15.60;99.90;;;;;;5019135;28;20057;-92
2023/06/30 11:28:11;;;;;;;4.25;2.03;;;15.60;99.90;;;;;;5029299;28;20025;-92
2023/06/30 11:30:41;;;;;;;4.38;2.42;;;15.60;99.90;;;;;;5044986;28;20036;-92
2023/06/30 11:33:07;;;;;;;3.55;1.38;;;15.70;99.90;;;;;;5033845;28;20030;-89
2023/06/30 11:35:36;;;;;;;3.17;1.45;;;15.70;99.90;;;;;;5017502;28;20026;-94
2023/06/30 11:38:02;;;;;;;3.58;1.73;;;15.80;99.90;;;;;;5017399;28;20045;-93
2023/06/30 11:40:28;;;;;;;1.85;1.40;;;15.90;99.90;;;;;;5037477;28;20073;-93
2023/06/30 11:42:54;;;;;;;1.73;1.30;;;16.00;99.90;;;;;;5017824;28;20029;-92
2023/06/30 11:45:20;;;;;;;1.38;1.20;;;16.20;99.90;;;;;;5034466;28;20018;-91
2023/06/30 11:47:54;;;;;;;1.65;1.05;;;16.30;99.90;;;;;;5018137;28;20029;-92
2023/06/30 11:50:20;;;;;;;2.25;1.15;;;16.40;99.90;;;;;;5007976;28;20505;-91
2023/06/30 11:52:47;;;;;;;2.08;1.27;;;16.50;99.90;;;;;;5017959;28;20021;-92
2023/06/30 11:55:14;;;;;;;2.28;1.25;;;16.50;99.90;;;;;;5017469;28;20025;-92
2023/06/30 11:57:41;;;;;;;1.00;1.00;;;16.50;99.90;;;;;;5018188;28;20032;-92
2023/06/30 12:00:07;;;;;;;1.73;1.23;;;16.50;99.90;;;;;;5036896;28;20083;-90
2023/06/30 12:02:32;;;;;;;3.13;2.03;;;16.60;99.90;;;;;;5020773;28;20128;-91
2023/06/30 12:04:58;;;;;;;2.05;1.38;;;16.70;99.90;;;;;;5037430;28;20118;-91
2023/06/30 12:07:24;;;;;;;1.25;1.15;;;16.70;99.90;;;;;;5034061;28;20017;-91
2023/06/30 12:10:02;;;;;;;1.58;1.35;;;16.80;99.90;;;;;;5035344;28;20034;-90
2023/06/30 12:12:28;;;;;;;4.10;1.48;;;17.00;99.90;;;;;;5014540;28;20032;-91
2023/06/30 12:14:57;;;;;;;1.10;1.00;;;17.20;99.90;;;;;;5014093;28;20053;-94
2023/06/30 12:17:27;;;;;;;2.47;1.10;;;17.40;99.90;;;;;;5014719;28;20026;-92
2023/06/30 12:19:53;;;;;;;2.00;1.00;;;17.60;99.90;;;;;;4998507;28;20646;-93
2023/06/30 12:22:27;;;;;;;2.65;1.50;;;17.70;99.90;;;;;;5009800;28;20109;-93
2023/06/30 12:24:57;;;;;;;3.33;1.38;;;17.80;99.90;;;;;;5014277;28;20034;-94
2023/06/30 12:27:26;;;;;;;;;;;17.90;99.90;;;;;;5016069;28;20075;-92
2023/06/30 12:29:51;;;;;;;2.05;1.00;;;18.00;99.90;;;;;;4998238;28;19948;-93
2023/06/30 12:32:17;;;;;;;2.35;1.10;;;18.10;99.90;;;;;;5025533;28;20033;-93
2023/06/30 12:34:45;;;;;;;2.20;1.17;;;18.10;99.90;;;;;;5034683;28;20484;-95
2023/06/30 12:37:11;;;;;;;1.52;1.00;;;18.10;99.90;;;;;;5017528;28;20057;-92
2023/06/30 12:39:37;;;;;;;2.15;1.38;;;18.10;99.90;;;;;;5016024;28;20037;-93
2023/06/30 12:42:03;;;;;;;1.60;1.10;;;18.10;99.90;;;;;;5018841;28;20531;-93
2023/06/30 12:44:30;;;;;;;2.38;1.30;;;18.00;99.90;;;;;;5017257;28;20045;-90
2023/06/30 12:46:59;;;;;;;2.50;1.52;;;18.10;99.90;;;;;;5017215;28;20510;-94